Sw Cap Ferrat I — 3FZK6 — position and weather

sailwx.info

Track history (hours):
 
Tides and Currents Weather Stations Pressure Air Temp Water Temp Dewpoint Dewpoint Depression Visibility Wind Speed Wind Dir Waves Ship Positions

Sw Cap Ferrat I

Last reported at 2016-Jun-25 16:30 UTC. Time now 2016-Jun-26 02:56 UTC.
Position N 56°06' E 018°14'.

Length 183 m; draft 7.1 m.

Type: Ship (hazmat cat D). MMSI: 374419000.

Date/timePositionNaut miles runAvg speedWind from/ knotsBaromVisibWave heightAir tempDewpointWater temp
2016-Jun-25 16:30N 56°06' E 018°14'6613.3
2016-Jun-25 11:33N 55°44' E 016°24'1313.4
2016-Jun-25 10:33N 55°41' E 016°01'1313.4
2016-Jun-25 09:33N 55°37' E 015°38'1413.6
2016-Jun-25 08:33N 55°33' E 015°15'1313.4
2016-Jun-25 07:34N 55°27' E 014°54'1313.1
2016-Jun-25 06:33N 55°20' E 014°34'1313.1
2016-Jun-25 05:34N 55°10' E 014°19'1312.7
2016-Jun-25 04:34N 55°10' E 013°57'1313.2
2016-Jun-25 03:33N 55°12' E 013°34'1313.4
2016-Jun-25 02:33N 55°14' E 013°11'1313.3
2016-Jun-25 01:33N 55°15' E 012°48'1110.9
2016-Jun-25 00:33N 55°25' E 012°39'1010.3
2016-Jun-24 23:33N 55°35' E 012°42'1111.1
2016-Jun-24 22:33N 55°46' E 012°42'1212.1
2016-Jun-24 21:33N 55°58' E 012°40'1111.3
2016-Jun-24 20:33N 56°08' E 012°29'1110.7
2016-Jun-24 19:33N 56°14' E 012°13'1212.3
2016-Jun-24 18:33N 56°24' E 012°01'1313.5
2016-Jun-24 17:33N 56°37' E 011°55'1413.2
2016-Jun-24 16:28N 56°51' E 011°48'1313.4
2016-Jun-24 15:32N 57°03' E 011°41'1313.1
2016-Jun-24 14:34N 57°15' E 011°32'1312.5
2016-Jun-24 13:33N 57°27' E 011°25'1312.6
2016-Jun-24 12:33N 57°35' E 011°08'1212.1
2016-Jun-24 11:33N 57°43' E 010°51'1110.7
2016-Jun-24 10:33N 57°51' E 010°37'1513.2
2016-Jun-24 09:23N 57°51' E 010°08'1113.6
2016-Jun-24 08:33N 57°51' E 009°47'18411.4
2016-Jun-23 16:29N 55°25' E 006°24'1414.5
2016-Jun-23 15:33N 55°12' E 006°27'1414.1
2016-Jun-23 14:33N 54°58' E 006°33'1414.3
2016-Jun-23 13:33N 54°47' E 006°48'1413.8
2016-Jun-23 12:33N 54°36' E 007°02'1313.2
2016-Jun-23 11:33N 54°25' E 007°16'1312.9
2016-Jun-23 10:33N 54°15' E 007°29'1212.4
2016-Jun-23 09:33N 54°07' E 007°46'1312.7
2016-Jun-23 08:33N 54°01' E 008°05'1212.3
2016-Jun-23 07:33N 53°59' E 008°26'2713.7
2016-Jun-23 05:33N 53°53' E 009°11'1313.3
2016-Jun-23 04:33N 53°44' E 009°27'1211.8
2016-Jun-23 03:33N 53°34' E 009°39'9 9.2
2016-Jun-23 02:33N 53°32' E 009°54'3 2.9
2016-Jun-23 01:32N 53°30' E 009°57'0 0.0
2016-Jun-23 00:29N 53°30' E 009°57'0 0.0
2016-Jun-22 23:32N 53°30' E 009°57'0 0.0
2016-Jun-22 22:29N 53°30' E 009°57'0 0.0
2016-Jun-22 21:32N 53°30' E 009°57'0 0.0
2016-Jun-22 20:29N 53°30' E 009°57'0 0.0
2016-Jun-22 19:32N 53°30' E 009°57'0 0.0
2016-Jun-22 18:32N 53°30' E 009°57'0 0.0
2016-Jun-22 17:32N 53°30' E 009°57'0 0.0
2016-Jun-22 16:29N 53°30' E 009°57'0 0.0
2016-Jun-22 15:26N 53°30' E 009°57'0 0.0
2016-Jun-22 14:29N 53°30' E 009°57'0 0.0
2016-Jun-22 13:29N 53°30' E 009°57'0 0.0
2016-Jun-22 12:32N 53°30' E 009°57'0 0.0
2016-Jun-22 11:32N 53°30' E 009°57'0 0.0
2016-Jun-22 10:32N 53°30' E 009°57'0 0.0
2016-Jun-22 09:32N 53°30' E 009°57'0 0.0
2016-Jun-22 08:32N 53°30' E 009°57'0 0.0
2016-Jun-22 07:32N 53°30' E 009°57'0 0.0
2016-Jun-22 06:26N 53°30' E 009°57'0 0.0
2016-Jun-22 05:29N 53°30' E 009°57'0 0.0
2016-Jun-22 04:32N 53°30' E 009°57'0 0.0
2016-Jun-22 03:32N 53°30' E 009°57'0 0.0
2016-Jun-22 02:32N 53°30' E 009°57'0 0.0
2016-Jun-22 01:32N 53°30' E 009°57'0 0.0
2016-Jun-22 00:29N 53°30' E 009°57'0 0.0
2016-Jun-21 23:29N 53°30' E 009°57'0 0.0
2016-Jun-21 22:33N 53°30' E 009°57'0 0.0
2016-Jun-21 21:33N 53°30' E 009°57'0 0.0
2016-Jun-21 20:33N 53°30' E 009°57'0 0.2
2016-Jun-21 19:33N 53°30' E 009°57'4 4.3
2016-Jun-21 18:33N 53°33' E 009°51'8 8.0
2016-Jun-21 17:33N 53°35' E 009°38'10 9.9
2016-Jun-21 16:34N 53°43' E 009°29'1211.6
2016-Jun-21 15:34N 53°52' E 009°17'1211.7
2016-Jun-21 14:33N 53°51' E 008°57'1211.5
2016-Jun-21 13:33N 53°56' E 008°40'1312.5
2016-Jun-21 12:33N 53°59' E 008°19'1312.7
2016-Jun-21 11:33N 54°02' E 007°58'1212.3
2016-Jun-21 10:33N 54°08' E 007°40'1312.8
2016-Jun-21 09:33N 54°18' E 007°26'1212.4
2016-Jun-21 08:33N 54°28' E 007°13'1212.5
2016-Jun-21 07:33N 54°39' E 007°02'3812.7
2016-Jun-21 04:32N 55°14' E 006°38'1312.5
2016-Jun-21 03:29N 55°27' E 006°41'1212.6
2016-Jun-21 02:33N 55°39' E 006°46'17710.9
2016-Jun-20 10:17N 57°50' E 010°21'911.8
2016-Jun-20 09:33N 57°50' E 010°38'1110.6
2016-Jun-20 08:33N 57°44' E 010°54'1312.6
2016-Jun-20 07:33N 57°35' E 011°11'1212.4
2016-Jun-20 06:33N 57°26' E 011°26'1312.6
2016-Jun-20 05:33N 57°14' E 011°34'1312.5
2016-Jun-20 04:33N 57°02' E 011°42'1212.0
2016-Jun-20 03:33N 56°51' E 011°50'1211.7
2016-Jun-20 02:33N 56°40' E 011°47'4312.7
2016-Jun-19 23:11N 56°03' E 011°07'1012.1
2016-Jun-19 22:22N 55°55' E 010°57'3210.2
2016-Jun-19 19:15N 55°23' E 011°02'810.9
2016-Jun-19 18:33N 55°16' E 011°04'1010.5
2016-Jun-19 17:33N 55°05' E 011°02'1010.1
2016-Jun-19 16:33N 54°57' E 010°54'1010.4
2016-Jun-19 15:33N 54°47' E 010°49'9 8.9
2016-Jun-19 14:33N 54°38' E 010°54'1010.4
2016-Jun-19 13:33N 54°36' E 011°11'1110.9
2016-Jun-19 12:33N 54°31' E 011°28'1211.5
2016-Jun-19 11:33N 54°27' E 011°46'1111.4
2016-Jun-19 10:33N 54°26' E 012°06'1010.2
2016-Jun-19 09:33N 54°35' E 012°15'1110.5
2016-Jun-19 08:33N 54°41' E 012°30'3712.4
2016-Jun-19 05:33N 54°57' E 013°28'1212.5
2016-Jun-19 04:33N 55°01' E 013°49'1211.9
2016-Jun-19 03:33N 55°06' E 014°07'1312.6
2016-Jun-19 02:33N 55°16' E 014°21'1312.8
2016-Jun-19 01:33N 55°26' E 014°35'1312.5
2016-Jun-19 00:33N 55°32' E 014°55'1212.4
2016-Jun-18 23:33N 55°37' E 015°15'1312.5
2016-Jun-18 22:33N 55°40' E 015°37'1312.5
2016-Jun-18 21:31N 55°44' E 015°58'1212.5
2016-Jun-18 20:33N 55°47' E 016°19'28611.3
2016-Jun-17 19:19N 59°22' E 022°11'2413.4
2016-Jun-17 17:33N 59°33' E 022°52'1413.5
2016-Jun-17 16:32N 59°37' E 023°18'1313.4
2016-Jun-17 15:33N 59°41' E 023°43'1413.5
2016-Jun-17 14:32N 59°45' E 024°09'5412.9
2016-Jun-17 10:20N 59°56' E 025°55'1212.9
2016-Jun-17 09:23N 59°59' E 026°18'1112.8
2016-Jun-17 08:33N 60°01' E 026°39'1312.7
2016-Jun-17 07:33N 60°00' E 027°04'1312.8
2016-Jun-17 06:33N 60°07' E 027°26'1212.4
2016-Jun-17 05:33N 60°12' E 027°49'1212.5
2016-Jun-17 04:33N 60°08' E 028°13'1211.9
2016-Jun-17 03:31N 60°10' E 028°38'8 7.6
2016-Jun-17 02:26N 60°17' E 028°46'2 0.1
2016-Jun-15 23:28N 60°19' E 028°44'0 0.0
2016-Jun-15 22:28N 60°19' E 028°44'0 0.0
2016-Jun-15 21:28N 60°19' E 028°44'0 0.0
2016-Jun-15 20:31N 60°19' E 028°44'0 0.0
2016-Jun-15 19:28N 60°19' E 028°44'0 0.0
2016-Jun-15 18:31N 60°19' E 028°44'0 0.0
2016-Jun-15 17:22N 60°19' E 028°44'  
Track history (hours):
 
Tides and Currents Weather Stations Pressure Air Temp Water Temp Dewpoint Dewpoint Depression Visibility Wind Speed Wind Dir Waves Ship Positions

Sw Cap Ferrat I

Last reported at 2016-Jun-25 16:30 UTC. Time now 2016-Jun-26 02:56 UTC.
Position N 56°06' E 018°14'.

Length 183 m; draft 7.1 m.

Type: Ship (hazmat cat D). MMSI: 374419000.

Date/timePositionNaut miles runAvg speedWind from/ knotsBaromVisibWave heightAir tempDewpointWater temp
2016-Jun-25 16:30N 56°06' E 018°14'6613.3
2016-Jun-25 11:33N 55°44' E 016°24'1313.4
2016-Jun-25 10:33N 55°41' E 016°01'1313.4
2016-Jun-25 09:33N 55°37' E 015°38'1413.6
2016-Jun-25 08:33N 55°33' E 015°15'1313.4
2016-Jun-25 07:34N 55°27' E 014°54'1313.1
2016-Jun-25 06:33N 55°20' E 014°34'1313.1
2016-Jun-25 05:34N 55°10' E 014°19'1312.7
2016-Jun-25 04:34N 55°10' E 013°57'1313.2
2016-Jun-25 03:33N 55°12' E 013°34'1313.4
2016-Jun-25 02:33N 55°14' E 013°11'1313.3
2016-Jun-25 01:33N 55°15' E 012°48'1110.9
2016-Jun-25 00:33N 55°25' E 012°39'1010.3
2016-Jun-24 23:33N 55°35' E 012°42'1111.1
2016-Jun-24 22:33N 55°46' E 012°42'1212.1
2016-Jun-24 21:33N 55°58' E 012°40'1111.3
2016-Jun-24 20:33N 56°08' E 012°29'1110.7
2016-Jun-24 19:33N 56°14' E 012°13'1212.3
2016-Jun-24 18:33N 56°24' E 012°01'1313.5
2016-Jun-24 17:33N 56°37' E 011°55'1413.2
2016-Jun-24 16:28N 56°51' E 011°48'1313.4
2016-Jun-24 15:32N 57°03' E 011°41'1313.1
2016-Jun-24 14:34N 57°15' E 011°32'1312.5
2016-Jun-24 13:33N 57°27' E 011°25'1312.6
2016-Jun-24 12:33N 57°35' E 011°08'1212.1
2016-Jun-24 11:33N 57°43' E 010°51'1110.7
2016-Jun-24 10:33N 57°51' E 010°37'1513.2
2016-Jun-24 09:23N 57°51' E 010°08'1113.6
2016-Jun-24 08:33N 57°51' E 009°47'18411.4
2016-Jun-23 16:29N 55°25' E 006°24'1414.5
2016-Jun-23 15:33N 55°12' E 006°27'1414.1
2016-Jun-23 14:33N 54°58' E 006°33'1414.3
2016-Jun-23 13:33N 54°47' E 006°48'1413.8
2016-Jun-23 12:33N 54°36' E 007°02'1313.2
2016-Jun-23 11:33N 54°25' E 007°16'1312.9
2016-Jun-23 10:33N 54°15' E 007°29'1212.4
2016-Jun-23 09:33N 54°07' E 007°46'1312.7
2016-Jun-23 08:33N 54°01' E 008°05'1212.3
2016-Jun-23 07:33N 53°59' E 008°26'2713.7
2016-Jun-23 05:33N 53°53' E 009°11'1313.3
2016-Jun-23 04:33N 53°44' E 009°27'1211.8
2016-Jun-23 03:33N 53°34' E 009°39'9 9.2
2016-Jun-23 02:33N 53°32' E 009°54'3 2.9
2016-Jun-23 01:32N 53°30' E 009°57'0 0.0
2016-Jun-23 00:29N 53°30' E 009°57'0 0.0
2016-Jun-22 23:32N 53°30' E 009°57'0 0.0
2016-Jun-22 22:29N 53°30' E 009°57'0 0.0
2016-Jun-22 21:32N 53°30' E 009°57'0 0.0
2016-Jun-22 20:29N 53°30' E 009°57'0 0.0
2016-Jun-22 19:32N 53°30' E 009°57'0 0.0
2016-Jun-22 18:32N 53°30' E 009°57'0 0.0
2016-Jun-22 17:32N 53°30' E 009°57'0 0.0
2016-Jun-22 16:29N 53°30' E 009°57'0 0.0
2016-Jun-22 15:26N 53°30' E 009°57'0 0.0
2016-Jun-22 14:29N 53°30' E 009°57'0 0.0
2016-Jun-22 13:29N 53°30' E 009°57'0 0.0
2016-Jun-22 12:32N 53°30' E 009°57'0 0.0
2016-Jun-22 11:32N 53°30' E 009°57'0 0.0
2016-Jun-22 10:32N 53°30' E 009°57'0 0.0
2016-Jun-22 09:32N 53°30' E 009°57'0 0.0
2016-Jun-22 08:32N 53°30' E 009°57'0 0.0
2016-Jun-22 07:32N 53°30' E 009°57'0 0.0
2016-Jun-22 06:26N 53°30' E 009°57'0 0.0
2016-Jun-22 05:29N 53°30' E 009°57'0 0.0
2016-Jun-22 04:32N 53°30' E 009°57'0 0.0
2016-Jun-22 03:32N 53°30' E 009°57'0 0.0
2016-Jun-22 02:32N 53°30' E 009°57'0 0.0
2016-Jun-22 01:32N 53°30' E 009°57'0 0.0
2016-Jun-22 00:29N 53°30' E 009°57'0 0.0
2016-Jun-21 23:29N 53°30' E 009°57'0 0.0
2016-Jun-21 22:33N 53°30' E 009°57'0 0.0
2016-Jun-21 21:33N 53°30' E 009°57'0 0.0
2016-Jun-21 20:33N 53°30' E 009°57'0 0.2
2016-Jun-21 19:33N 53°30' E 009°57'4 4.3
2016-Jun-21 18:33N 53°33' E 009°51'8 8.0
2016-Jun-21 17:33N 53°35' E 009°38'10 9.9
2016-Jun-21 16:34N 53°43' E 009°29'1211.6
2016-Jun-21 15:34N 53°52' E 009°17'1211.7
2016-Jun-21 14:33N 53°51' E 008°57'1211.5
2016-Jun-21 13:33N 53°56' E 008°40'1312.5
2016-Jun-21 12:33N 53°59' E 008°19'1312.7
2016-Jun-21 11:33N 54°02' E 007°58'1212.3
2016-Jun-21 10:33N 54°08' E 007°40'1312.8
2016-Jun-21 09:33N 54°18' E 007°26'1212.4
2016-Jun-21 08:33N 54°28' E 007°13'1212.5
2016-Jun-21 07:33N 54°39' E 007°02'3812.7
2016-Jun-21 04:32N 55°14' E 006°38'1312.5
2016-Jun-21 03:29N 55°27' E 006°41'1212.6
2016-Jun-21 02:33N 55°39' E 006°46'17710.9
2016-Jun-20 10:17N 57°50' E 010°21'911.8
2016-Jun-20 09:33N 57°50' E 010°38'1110.6
2016-Jun-20 08:33N 57°44' E 010°54'1312.6
2016-Jun-20 07:33N 57°35' E 011°11'1212.4
2016-Jun-20 06:33N 57°26' E 011°26'1312.6
2016-Jun-20 05:33N 57°14' E 011°34'1312.5
2016-Jun-20 04:33N 57°02' E 011°42'1212.0
2016-Jun-20 03:33N 56°51' E 011°50'1211.7
2016-Jun-20 02:33N 56°40' E 011°47'4312.7
2016-Jun-19 23:11N 56°03' E 011°07'1012.1
2016-Jun-19 22:22N 55°55' E 010°57'3210.2
2016-Jun-19 19:15N 55°23' E 011°02'810.9
2016-Jun-19 18:33N 55°16' E 011°04'1010.5
2016-Jun-19 17:33N 55°05' E 011°02'1010.1
2016-Jun-19 16:33N 54°57' E 010°54'1010.4
2016-Jun-19 15:33N 54°47' E 010°49'9 8.9
2016-Jun-19 14:33N 54°38' E 010°54'1010.4
2016-Jun-19 13:33N 54°36' E 011°11'1110.9
2016-Jun-19 12:33N 54°31' E 011°28'1211.5
2016-Jun-19 11:33N 54°27' E 011°46'1111.4
2016-Jun-19 10:33N 54°26' E 012°06'1010.2
2016-Jun-19 09:33N 54°35' E 012°15'1110.5
2016-Jun-19 08:33N 54°41' E 012°30'3712.4
2016-Jun-19 05:33N 54°57' E 013°28'1212.5
2016-Jun-19 04:33N 55°01' E 013°49'1211.9
2016-Jun-19 03:33N 55°06' E 014°07'1312.6
2016-Jun-19 02:33N 55°16' E 014°21'1312.8
2016-Jun-19 01:33N 55°26' E 014°35'1312.5
2016-Jun-19 00:33N 55°32' E 014°55'1212.4
2016-Jun-18 23:33N 55°37' E 015°15'1312.5
2016-Jun-18 22:33N 55°40' E 015°37'1312.5
2016-Jun-18 21:31N 55°44' E 015°58'1212.5
2016-Jun-18 20:33N 55°47' E 016°19'28611.3
2016-Jun-17 19:19N 59°22' E 022°11'2413.4
2016-Jun-17 17:33N 59°33' E 022°52'1413.5
2016-Jun-17 16:32N 59°37' E 023°18'1313.4
2016-Jun-17 15:33N 59°41' E 023°43'1413.5
2016-Jun-17 14:32N 59°45' E 024°09'5412.9
2016-Jun-17 10:20N 59°56' E 025°55'1212.9
2016-Jun-17 09:23N 59°59' E 026°18'1112.8
2016-Jun-17 08:33N 60°01' E 026°39'1312.7
2016-Jun-17 07:33N 60°00' E 027°04'1312.8
2016-Jun-17 06:33N 60°07' E 027°26'1212.4
2016-Jun-17 05:33N 60°12' E 027°49'1212.5
2016-Jun-17 04:33N 60°08' E 028°13'1211.9
2016-Jun-17 03:31N 60°10' E 028°38'8 7.6
2016-Jun-17 02:26N 60°17' E 028°46'2 0.1
2016-Jun-15 23:28N 60°19' E 028°44'0 0.0
2016-Jun-15 22:28N 60°19' E 028°44'0 0.0
2016-Jun-15 21:28N 60°19' E 028°44'0 0.0
2016-Jun-15 20:31N 60°19' E 028°44'0 0.0
2016-Jun-15 19:28N 60°19' E 028°44'0 0.0
2016-Jun-15 18:31N 60°19' E 028°44'0 0.0
2016-Jun-15 17:22N 60°19' E 028°44'  

Dump ship's entire track history